sensor_id;sensor_type;location;lat;lon;timestamp;pressure;altitude;pressure_sealevel;temperature;humidity
45129;BME280;35512;56.312;101.728;2023-01-25T00:01:50;96580.56;;;-23.40;71.66
45129;BME280;35512;56.312;101.728;2023-01-25T00:04:22;96595.91;;;-23.40;71.64
45129;BME280;35512;56.312;101.728;2023-01-25T00:06:51;96594.28;;;-23.41;71.69
45129;BME280;35512;56.312;101.728;2023-01-25T00:09:21;96600.06;;;-23.39;71.91
45129;BME280;35512;56.312;101.728;2023-01-25T00:11:50;96595.13;;;-23.40;71.74
45129;BME280;35512;56.312;101.728;2023-01-25T00:14:20;96601.16;;;-23.41;71.67
45129;BME280;35512;56.312;101.728;2023-01-25T00:16:50;96605.44;;;-23.42;71.72
45129;BME280;35512;56.312;101.728;2023-01-25T00:19:19;96597.78;;;-23.42;71.77
45129;BME280;35512;56.312;101.728;2023-01-25T00:21:48;96598.09;;;-23.45;71.58
45129;BME280;35512;56.312;101.728;2023-01-25T00:24:17;96598.91;;;-23.44;71.65
45129;BME280;35512;56.312;101.728;2023-01-25T00:26:47;96607.38;;;-23.44;71.23
45129;BME280;35512;56.312;101.728;2023-01-25T00:29:17;96598.53;;;-23.50;71.79
45129;BME280;35512;56.312;101.728;2023-01-25T00:31:57;96603.66;;;-23.50;71.55
45129;BME280;35512;56.312;101.728;2023-01-25T00:34:49;96606.34;;;-23.51;71.66
45129;BME280;35512;56.312;101.728;2023-01-25T00:37:19;96601.34;;;-23.53;71.54
45129;BME280;35512;56.312;101.728;2023-01-25T00:39:51;96601.16;;;-23.59;71.32
45129;BME280;35512;56.312;101.728;2023-01-25T00:42:20;96598.38;;;-23.66;71.35
45129;BME280;35512;56.312;101.728;2023-01-25T00:44:49;96606.44;;;-23.71;71.55
45129;BME280;35512;56.312;101.728;2023-01-25T00:47:19;96603.25;;;-23.73;71.56
45129;BME280;35512;56.312;101.728;2023-01-25T00:49:48;96608.34;;;-23.73;71.49
45129;BME280;35512;56.312;101.728;2023-01-25T00:52:18;96602.84;;;-23.78;71.54
45129;BME280;35512;56.312;101.728;2023-01-25T00:54:47;96619.22;;;-23.71;71.65
45129;BME280;35512;56.312;101.728;2023-01-25T00:57:16;96601.63;;;-23.74;71.64
45129;BME280;35512;56.312;101.728;2023-01-25T00:59:45;96614.41;;;-23.74;71.58
45129;BME280;35512;56.312;101.728;2023-01-25T01:02:15;96619.88;;;-23.69;71.47
45129;BME280;35512;56.312;101.728;2023-01-25T01:04:45;96615.34;;;-23.75;71.47
45129;BME280;35512;56.312;101.728;2023-01-25T01:07:14;96626.09;;;-23.71;71.46
45129;BME280;35512;56.312;101.728;2023-01-25T01:09:49;96626.09;;;-23.71;71.54
45129;BME280;35512;56.312;101.728;2023-01-25T01:12:18;96622.31;;;-23.67;71.45
45129;BME280;35512;56.312;101.728;2023-01-25T01:14:47;96622.94;;;-23.65;71.78
45129;BME280;35512;56.312;101.728;2023-01-25T01:17:16;96629.75;;;-23.56;71.84
45129;BME280;35512;56.312;101.728;2023-01-25T01:19:47;96629.44;;;-23.43;71.98
45129;BME280;35512;56.312;101.728;2023-01-25T01:22:16;96630.69;;;-23.29;71.96
45129;BME280;35512;56.312;101.728;2023-01-25T01:24:46;96650.03;;;-23.08;72.20
45129;BME280;35512;56.312;101.728;2023-01-25T01:27:18;96647.59;;;-22.92;72.18
45129;BME280;35512;56.312;101.728;2023-01-25T01:29:47;96644.59;;;-22.87;72.09
45129;BME280;35512;56.312;101.728;2023-01-25T01:32:16;96644.81;;;-22.81;72.01
45129;BME280;35512;56.312;101.728;2023-01-25T01:34:45;96645.69;;;-22.72;72.08
45129;BME280;35512;56.312;101.728;2023-01-25T01:37:14;96650.22;;;-22.66;72.18
45129;BME280;35512;56.312;101.728;2023-01-25T01:39:43;96658.63;;;-22.55;72.19
45129;BME280;35512;56.312;101.728;2023-01-25T01:42:12;96659.47;;;-22.47;72.21
45129;BME280;35512;56.312;101.728;2023-01-25T01:44:52;96659.84;;;-22.33;72.59
45129;BME280;35512;56.312;101.728;2023-01-25T01:47:32;96667.44;;;-22.23;72.25
45129;BME280;35512;56.312;101.728;2023-01-25T01:50:18;96671.50;;;-22.13;72.53
45129;BME280;35512;56.312;101.728;2023-01-25T01:52:50;96665.78;;;-22.06;72.06
45129;BME280;35512;56.312;101.728;2023-01-25T01:55:20;96674.31;;;-21.98;72.63
45129;BME280;35512;56.312;101.728;2023-01-25T01:57:56;96668.25;;;-21.97;72.19
45129;BME280;35512;56.312;101.728;2023-01-25T02:00:31;96679.97;;;-21.94;72.29
45129;BME280;35512;56.312;101.728;2023-01-25T02:03:02;96670.69;;;-21.87;72.29
45129;BME280;35512;56.312;101.728;2023-01-25T02:05:53;96677.97;;;-21.74;72.77
45129;BME280;35512;56.312;101.728;2023-01-25T02:08:25;96670.34;;;-21.66;72.51
45129;BME280;35512;56.312;101.728;2023-01-25T02:10:59;96665.22;;;-21.57;72.50
45129;BME280;35512;56.312;101.728;2023-01-25T02:13:29;96674.81;;;-21.59;72.22
45129;BME280;35512;56.312;101.728;2023-01-25T02:16:00;96668.09;;;-21.60;72.39
45129;BME280;35512;56.312;101.728;2023-01-25T02:18:30;96673.41;;;-21.46;72.53
45129;BME280;35512;56.312;101.728;2023-01-25T02:21:00;96681.47;;;-21.32;72.48
45129;BME280;35512;56.312;101.728;2023-01-25T02:23:52;96673.50;;;-21.21;72.62
45129;BME280;35512;56.312;101.728;2023-01-25T02:26:23;96677.53;;;-21.10;72.44
45129;BME280;35512;56.312;101.728;2023-01-25T02:29:02;96680.13;;;-21.02;72.72
45129;BME280;35512;56.312;101.728;2023-01-25T02:31:32;96679.16;;;-20.92;72.52
45129;BME280;35512;56.312;101.728;2023-01-25T02:34:01;96683.34;;;-20.83;72.65
45129;BME280;35512;56.312;101.728;2023-01-25T02:36:32;96673.41;;;-20.78;72.89
45129;BME280;35512;56.312;101.728;2023-01-25T02:39:09;96673.88;;;-20.66;72.97
45129;BME280;35512;56.312;101.728;2023-01-25T02:41:41;96676.13;;;-20.55;72.90
45129;BME280;35512;56.312;101.728;2023-01-25T02:44:14;96661.50;;;-20.54;72.80
45129;BME280;35512;56.312;101.728;2023-01-25T02:46:44;96678.22;;;-20.42;72.88
45129;BME280;35512;56.312;101.728;2023-01-25T02:49:14;96672.78;;;-20.39;72.67
45129;BME280;35512;56.312;101.728;2023-01-25T02:51:46;96667.13;;;-20.26;72.86
45129;BME280;35512;56.312;101.728;2023-01-25T02:54:17;96661.38;;;-20.28;72.82
45129;BME280;35512;56.312;101.728;2023-01-25T02:56:48;96673.34;;;-20.04;73.06
45129;BME280;35512;56.312;101.728;2023-01-25T02:59:17;96681.19;;;-19.89;73.14
45129;BME280;35512;56.312;101.728;2023-01-25T03:01:51;96671.06;;;-19.82;72.98
45129;BME280;35512;56.312;101.728;2023-01-25T03:04:20;96672.59;;;-19.65;73.15
45129;BME280;35512;56.312;101.728;2023-01-25T03:06:50;96664.03;;;-19.49;73.17
45129;BME280;35512;56.312;101.728;2023-01-25T03:09:19;96679.19;;;-19.23;73.18
45129;BME280;35512;56.312;101.728;2023-01-25T03:11:50;96677.31;;;-18.97;73.48
45129;BME280;35512;56.312;101.728;2023-01-25T03:14:21;96675.34;;;-18.72;73.43
45129;BME280;35512;56.312;101.728;2023-01-25T03:16:50;96676.53;;;-18.60;73.30
45129;BME280;35512;56.312;101.728;2023-01-25T03:19:22;96674.94;;;-18.61;73.07
45129;BME280;35512;56.312;101.728;2023-01-25T03:21:51;96683.66;;;-18.62;72.69
45129;BME280;35512;56.312;101.728;2023-01-25T03:24:20;96692.97;;;-18.61;72.80
45129;BME280;35512;56.312;101.728;2023-01-25T03:26:50;96696.06;;;-18.65;72.94
45129;BME280;35512;56.312;101.728;2023-01-25T03:29:44;96708.78;;;-18.64;72.85
45129;BME280;35512;56.312;101.728;2023-01-25T03:32:17;96704.09;;;-18.60;73.00
45129;BME280;35512;56.312;101.728;2023-01-25T03:34:47;96699.78;;;-18.45;73.44
45129;BME280;35512;56.312;101.728;2023-01-25T03:37:18;96703.63;;;-18.17;73.54
45129;BME280;35512;56.312;101.728;2023-01-25T03:39:48;96707.59;;;-17.92;73.79
45129;BME280;35512;56.312;101.728;2023-01-25T03:42:19;96705.13;;;-17.55;74.20
45129;BME280;35512;56.312;101.728;2023-01-25T03:44:54;96711.53;;;-17.21;74.07
45129;BME280;35512;56.312;101.728;2023-01-25T03:47:23;96705.88;;;-16.95;73.84
45129;BME280;35512;56.312;101.728;2023-01-25T03:49:51;96703.84;;;-16.78;73.49
45129;BME280;35512;56.312;101.728;2023-01-25T03:52:22;96697.06;;;-16.79;73.36
45129;BME280;35512;56.312;101.728;2023-01-25T03:54:52;96705.31;;;-16.69;73.76
45129;BME280;35512;56.312;101.728;2023-01-25T03:57:21;96709.34;;;-16.44;73.87
45129;BME280;35512;56.312;101.728;2023-01-25T03:59:55;96704.44;;;-16.18;73.94
45129;BME280;35512;56.312;101.728;2023-01-25T04:02:26;96714.00;;;-15.90;73.66
45129;BME280;35512;56.312;101.728;2023-01-25T04:04:55;96711.41;;;-15.90;73.24
45129;BME280;35512;56.312;101.728;2023-01-25T04:07:26;96710.31;;;-16.02;73.06
45129;BME280;35512;56.312;101.728;2023-01-25T04:09:55;96713.63;;;-16.15;73.03
45129;BME280;35512;56.312;101.728;2023-01-25T04:12:23;96723.91;;;-16.22;73.15
45129;BME280;35512;56.312;101.728;2023-01-25T04:14:52;96717.06;;;-16.29;73.23
45129;BME280;35512;56.312;101.728;2023-01-25T04:17:23;96706.59;;;-16.43;73.08
45129;BME280;35512;56.312;101.728;2023-01-25T04:20:06;96710.44;;;-16.54;73.10
45129;BME280;35512;56.312;101.728;2023-01-25T04:22:39;96702.22;;;-16.64;72.94
45129;BME280;35512;56.312;101.728;2023-01-25T04:25:09;96700.00;;;-16.67;73.20
45129;BME280;35512;56.312;101.728;2023-01-25T04:27:44;96705.88;;;-16.73;72.73
45129;BME280;35512;56.312;101.728;2023-01-25T04:30:15;96701.88;;;-16.76;73.33
45129;BME280;35512;56.312;101.728;2023-01-25T04:32:45;96712.34;;;-16.62;73.70
45129;BME280;35512;56.312;101.728;2023-01-25T04:35:28;96714.78;;;-16.76;72.83
45129;BME280;35512;56.312;101.728;2023-01-25T04:37:59;96716.06;;;-16.87;73.02
45129;BME280;35512;56.312;101.728;2023-01-25T04:40:35;96717.31;;;-16.83;73.19
45129;BME280;35512;56.312;101.728;2023-01-25T04:43:05;96718.53;;;-16.78;73.42
45129;BME280;35512;56.312;101.728;2023-01-25T04:45:35;96727.16;;;-16.71;73.59
45129;BME280;35512;56.312;101.728;2023-01-25T04:48:12;96717.53;;;-16.62;73.74
45129;BME280;35512;56.312;101.728;2023-01-25T04:50:49;96726.16;;;-16.55;73.69
45129;BME280;35512;56.312;101.728;2023-01-25T04:53:21;96713.66;;;-16.52;73.31
45129;BME280;35512;56.312;101.728;2023-01-25T04:55:51;96718.09;;;-16.45;73.46
45129;BME280;35512;56.312;101.728;2023-01-25T04:58:21;96717.00;;;-16.36;73.80
45129;BME280;35512;56.312;101.728;2023-01-25T05:00:51;96721.44;;;-16.30;73.74
45129;BME280;35512;56.312;101.728;2023-01-25T05:03:21;96718.78;;;-16.15;73.81
45129;BME280;35512;56.312;101.728;2023-01-25T05:05:53;96720.97;;;-15.90;74.04
45129;BME280;35512;56.312;101.728;2023-01-25T05:08:24;96717.31;;;-15.68;74.27
45129;BME280;35512;56.312;101.728;2023-01-25T05:11:00;96720.16;;;-15.27;74.56
45129;BME280;35512;56.312;101.728;2023-01-25T05:13:37;96718.09;;;-15.04;74.16
45129;BME280;35512;56.312;101.728;2023-01-25T05:16:28;96717.19;;;-14.83;73.83
45129;BME280;35512;56.312;101.728;2023-01-25T05:18:58;96719.25;;;-14.65;73.98
45129;BME280;35512;56.312;101.728;2023-01-25T05:21:54;96718.25;;;-14.57;73.55
45129;BME280;35512;56.312;101.728;2023-01-25T05:24:40;96713.09;;;-14.50;74.09
45129;BME280;35512;56.312;101.728;2023-01-25T05:27:13;96716.47;;;-14.50;73.52
45129;BME280;35512;56.312;101.728;2023-01-25T05:30:06;96709.66;;;-14.64;73.53
45129;BME280;35512;56.312;101.728;2023-01-25T05:32:48;96716.84;;;-14.66;73.93
45129;BME280;35512;56.312;101.728;2023-01-25T05:35:17;96709.66;;;-14.64;74.32
45129;BME280;35512;56.312;101.728;2023-01-25T05:37:49;96718.66;;;-14.67;74.04
45129;BME280;35512;56.312;101.728;2023-01-25T05:40:22;96714.41;;;-14.81;73.91
45129;BME280;35512;56.312;101.728;2023-01-25T05:42:58;96723.56;;;-14.85;73.96
45129;BME280;35512;56.312;101.728;2023-01-25T05:45:29;96726.75;;;-14.90;73.86
45129;BME280;35512;56.312;101.728;2023-01-25T05:47:58;96720.50;;;-14.96;73.95
45129;BME280;35512;56.312;101.728;2023-01-25T05:50:29;96723.97;;;-14.82;74.44
45129;BME280;35512;56.312;101.728;2023-01-25T05:53:05;96724.44;;;-14.58;74.51
45129;BME280;35512;56.312;101.728;2023-01-25T05:55:35;96736.44;;;-14.50;74.05
45129;BME280;35512;56.312;101.728;2023-01-25T05:58:09;96727.66;;;-14.63;73.84
45129;BME280;35512;56.312;101.728;2023-01-25T06:00:39;96737.16;;;-14.76;73.99
45129;BME280;35512;56.312;101.728;2023-01-25T06:03:14;96730.72;;;-14.87;74.17
45129;BME280;35512;56.312;101.728;2023-01-25T06:05:45;96742.25;;;-14.97;73.69
45129;BME280;35512;56.312;101.728;2023-01-25T06:08:15;96742.38;;;-15.11;73.98
45129;BME280;35512;56.312;101.728;2023-01-25T06:10:47;96721.34;;;-15.30;74.06
45129;BME280;35512;56.312;101.728;2023-01-25T06:13:17;96729.91;;;-15.36;74.17
45129;BME280;35512;56.312;101.728;2023-01-25T06:15:52;96737.53;;;-15.56;73.65
45129;BME280;35512;56.312;101.728;2023-01-25T06:18:56;96737.88;;;-15.66;73.70
45129;BME280;35512;56.312;101.728;2023-01-25T06:21:34;96742.59;;;-15.70;74.01
45129;BME280;35512;56.312;101.728;2023-01-25T06:24:06;96752.53;;;-15.73;74.35
45129;BME280;35512;56.312;101.728;2023-01-25T06:26:35;96756.81;;;-15.87;74.06
45129;BME280;35512;56.312;101.728;2023-01-25T06:29:05;96751.13;;;-16.04;73.75
45129;BME280;35512;56.312;101.728;2023-01-25T06:31:34;96754.88;;;-16.07;74.13
45129;BME280;35512;56.312;101.728;2023-01-25T06:34:04;96742.84;;;-16.14;74.15
45129;BME280;35512;56.312;101.728;2023-01-25T06:36:34;96754.19;;;-16.16;74.09
45129;BME280;35512;56.312;101.728;2023-01-25T06:39:03;96755.19;;;-16.17;74.09
45129;BME280;35512;56.312;101.728;2023-01-25T06:41:32;96756.09;;;-16.24;74.18
45129;BME280;35512;56.312;101.728;2023-01-25T06:44:02;96760.03;;;-16.28;74.07
45129;BME280;35512;56.312;101.728;2023-01-25T06:46:31;96753.00;;;-16.35;74.16
45129;BME280;35512;56.312;101.728;2023-01-25T06:49:01;96757.00;;;-16.32;74.30
45129;BME280;35512;56.312;101.728;2023-01-25T06:51:30;96756.94;;;-16.39;74.26
45129;BME280;35512;56.312;101.728;2023-01-25T06:54:01;96759.44;;;-16.45;74.29
45129;BME280;35512;56.312;101.728;2023-01-25T06:56:31;96759.81;;;-16.48;74.16
45129;BME280;35512;56.312;101.728;2023-01-25T06:59:00;96768.22;;;-16.46;74.41
45129;BME280;35512;56.312;101.728;2023-01-25T07:01:30;96764.88;;;-16.40;74.68
45129;BME280;35512;56.312;101.728;2023-01-25T07:04:01;96770.91;;;-16.33;74.33
45129;BME280;35512;56.312;101.728;2023-01-25T07:06:31;96778.34;;;-16.30;74.87
45129;BME280;35512;56.312;101.728;2023-01-25T07:09:07;96771.63;;;-16.24;74.69
45129;BME280;35512;56.312;101.728;2023-01-25T07:11:36;96775.56;;;-16.07;74.90
45129;BME280;35512;56.312;101.728;2023-01-25T07:14:05;96770.22;;;-16.05;75.03
45129;BME280;35512;56.312;101.728;2023-01-25T07:16:34;96754.81;;;-16.13;74.71
45129;BME280;35512;56.312;101.728;2023-01-25T07:19:08;96783.75;;;-16.03;74.69
45129;BME280;35512;56.312;101.728;2023-01-25T07:21:38;96786.91;;;-16.08;74.64
45129;BME280;35512;56.312;101.728;2023-01-25T07:24:09;96784.31;;;-16.08;75.08
45129;BME280;35512;56.312;101.728;2023-01-25T07:26:40;96790.59;;;-15.95;75.47
45129;BME280;35512;56.312;101.728;2023-01-25T07:29:13;96794.72;;;-15.79;75.55
45129;BME280;35512;56.312;101.728;2023-01-25T07:31:42;96795.53;;;-15.72;75.34
45129;BME280;35512;56.312;101.728;2023-01-25T07:34:12;96797.56;;;-15.68;74.82
45129;BME280;35512;56.312;101.728;2023-01-25T07:36:41;96801.81;;;-15.60;75.56
45129;BME280;35512;56.312;101.728;2023-01-25T07:39:11;96799.28;;;-15.53;75.35
45129;BME280;35512;56.312;101.728;2023-01-25T07:41:41;96800.66;;;-15.57;74.78
45129;BME280;35512;56.312;101.728;2023-01-25T07:44:15;96799.50;;;-15.76;74.65
45129;BME280;35512;56.312;101.728;2023-01-25T07:46:46;96808.16;;;-15.91;74.51
45129;BME280;35512;56.312;101.728;2023-01-25T07:49:16;96811.97;;;-16.08;74.66
45129;BME280;35512;56.312;101.728;2023-01-25T07:51:44;96807.81;;;-16.24;74.88
45129;BME280;35512;56.312;101.728;2023-01-25T07:54:13;96812.38;;;-16.26;74.72
45129;BME280;35512;56.312;101.728;2023-01-25T07:56:42;96806.06;;;-16.39;74.77
45129;BME280;35512;56.312;101.728;2023-01-25T07:59:12;96795.94;;;-16.55;74.76
45129;BME280;35512;56.312;101.728;2023-01-25T08:01:42;96793.28;;;-16.62;74.72
45129;BME280;35512;56.312;101.728;2023-01-25T08:04:11;96820.81;;;-16.54;74.77
45129;BME280;35512;56.312;101.728;2023-01-25T08:06:42;96809.16;;;-16.65;74.86
45129;BME280;35512;56.312;101.728;2023-01-25T08:09:16;96812.09;;;-16.68;74.96
45129;BME280;35512;56.312;101.728;2023-01-25T08:11:47;96811.38;;;-16.77;74.80
45129;BME280;35512;56.312;101.728;2023-01-25T08:14:16;96811.47;;;-16.85;74.61
45129;BME280;35512;56.312;101.728;2023-01-25T08:16:45;96828.28;;;-16.08;76.45
45129;BME280;35512;56.312;101.728;2023-01-25T08:19:14;96808.19;;;-15.34;76.63
45129;BME280;35512;56.312;101.728;2023-01-25T08:21:43;96825.56;;;-14.58;75.88
45129;BME280;35512;56.312;101.728;2023-01-25T08:24:12;96827.88;;;-14.28;75.45
45129;BME280;35512;56.312;101.728;2023-01-25T08:26:44;96823.84;;;-14.37;74.45
45129;BME280;35512;56.312;101.728;2023-01-25T08:29:13;96830.56;;;-14.56;73.78
45129;BME280;35512;56.312;101.728;2023-01-25T08:31:42;96825.75;;;-14.66;74.39
45129;BME280;35512;56.312;101.728;2023-01-25T08:34:14;96815.97;;;-14.64;74.35
45129;BME280;35512;56.312;101.728;2023-01-25T08:36:43;96835.38;;;-14.47;75.00
45129;BME280;35512;56.312;101.728;2023-01-25T08:39:12;96834.84;;;-14.35;75.12
45129;BME280;35512;56.312;101.728;2023-01-25T08:41:41;96832.44;;;-14.37;74.87
45129;BME280;35512;56.312;101.728;2023-01-25T08:44:11;96839.50;;;-14.66;74.17
45129;BME280;35512;56.312;101.728;2023-01-25T08:46:40;96847.84;;;-15.34;73.13
45129;BME280;35512;56.312;101.728;2023-01-25T08:49:09;96848.19;;;-16.08;72.94
45129;BME280;35512;56.312;101.728;2023-01-25T08:51:38;96855.69;;;-16.65;73.18
45129;BME280;35512;56.312;101.728;2023-01-25T08:54:10;96859.25;;;-16.96;73.57
45129;BME280;35512;56.312;101.728;2023-01-25T08:56:40;96850.97;;;-17.21;74.27
45129;BME280;35512;56.312;101.728;2023-01-25T08:59:12;96863.59;;;-17.26;74.29
45129;BME280;35512;56.312;101.728;2023-01-25T09:01:42;96871.19;;;-17.48;74.23
45129;BME280;35512;56.312;101.728;2023-01-25T09:04:12;96861.06;;;-17.73;74.01
45129;BME280;35512;56.312;101.728;2023-01-25T09:06:41;96867.78;;;-17.87;73.83
45129;BME280;35512;56.312;101.728;2023-01-25T09:09:11;96871.56;;;-17.97;73.88
45129;BME280;35512;56.312;101.728;2023-01-25T09:11:40;96870.34;;;-18.10;74.03
45129;BME280;35512;56.312;101.728;2023-01-25T09:14:09;96872.03;;;-18.25;74.11
45129;BME280;35512;56.312;101.728;2023-01-25T09:16:38;96870.81;;;-18.38;74.10
45129;BME280;35512;56.312;101.728;2023-01-25T09:19:08;96873.16;;;-18.51;74.18
45129;BME280;35512;56.312;101.728;2023-01-25T09:21:38;96874.31;;;-18.62;73.93
45129;BME280;35512;56.312;101.728;2023-01-25T09:24:07;96876.44;;;-18.74;74.14
45129;BME280;35512;56.312;101.728;2023-01-25T09:26:41;96884.69;;;-18.86;73.87
45129;BME280;35512;56.312;101.728;2023-01-25T09:29:22;96886.00;;;-18.99;73.85
45129;BME280;35512;56.312;101.728;2023-01-25T09:31:51;96881.88;;;-19.16;73.71
45129;BME280;35512;56.312;101.728;2023-01-25T09:34:31;96886.38;;;-19.27;73.74
45129;BME280;35512;56.312;101.728;2023-01-25T09:37:00;96887.84;;;-19.41;73.74
45129;BME280;35512;56.312;101.728;2023-01-25T09:39:29;96886.41;;;-19.51;73.68
45129;BME280;35512;56.312;101.728;2023-01-25T09:42:10;96896.84;;;-19.61;73.84
45129;BME280;35512;56.312;101.728;2023-01-25T09:47:44;96892.03;;;-19.81;73.69
45129;BME280;35512;56.312;101.728;2023-01-25T09:50:35;96902.16;;;-19.87;73.78
45129;BME280;35512;56.312;101.728;2023-01-25T09:55:42;96899.09;;;-19.99;73.60
45129;BME280;35512;56.312;101.728;2023-01-25T09:58:20;96899.06;;;-20.08;73.63
45129;BME280;35512;56.312;101.728;2023-01-25T10:01:07;96894.38;;;-20.20;73.68
45129;BME280;35512;56.312;101.728;2023-01-25T10:06:15;96910.44;;;-20.27;73.40
45129;BME280;35512;56.312;101.728;2023-01-25T10:09:36;96914.56;;;-20.34;73.55
45129;BME280;35512;56.312;101.728;2023-01-25T10:11:42;96914.53;;;-20.42;73.59
45129;BME280;35512;56.312;101.728;2023-01-25T10:14:16;96928.03;;;-20.40;73.66
45129;BME280;35512;56.312;101.728;2023-01-25T10:21:59;96938.13;;;-20.47;73.48
45129;BME280;35512;56.312;101.728;2023-01-25T10:30:52;96935.97;;;-20.68;73.29
45129;BME280;35512;56.312;101.728;2023-01-25T10:33:23;96927.41;;;-20.77;73.28
45129;BME280;35512;56.312;101.728;2023-01-25T10:35:52;96935.47;;;-20.71;73.38
45129;BME280;35512;56.312;101.728;2023-01-25T10:38:45;96937.38;;;-20.73;73.31
45129;BME280;35512;56.312;101.728;2023-01-25T10:41:35;96937.06;;;-20.79;73.43
45129;BME280;35512;56.312;101.728;2023-01-25T10:44:12;96946.84;;;-20.74;73.60
45129;BME280;35512;56.312;101.728;2023-01-25T10:49:46;96940.94;;;-20.74;73.34
45129;BME280;35512;56.312;101.728;2023-01-25T10:52:18;96940.88;;;-20.83;73.23
45129;BME280;35512;56.312;101.728;2023-01-25T10:57:38;96947.75;;;-20.83;73.33
45129;BME280;35512;56.312;101.728;2023-01-25T11:00:23;96945.66;;;-20.88;73.28
45129;BME280;35512;56.312;101.728;2023-01-25T11:02:57;96954.66;;;-20.84;73.37
45129;BME280;35512;56.312;101.728;2023-01-25T11:05:28;96955.63;;;-20.85;73.38
45129;BME280;35512;56.312;101.728;2023-01-25T11:08:14;96957.53;;;-20.87;73.34
45129;BME280;35512;56.312;101.728;2023-01-25T11:10:48;96963.78;;;-20.89;73.42
45129;BME280;35512;56.312;101.728;2023-01-25T11:13:44;96965.47;;;-20.98;73.35
45129;BME280;35512;56.312;101.728;2023-01-25T11:16:36;96972.97;;;-21.05;73.00
45129;BME280;35512;56.312;101.728;2023-01-25T11:19:36;96976.13;;;-21.11;73.07
45129;BME280;35512;56.312;101.728;2023-01-25T11:22:21;96979.13;;;-21.16;73.35
45129;BME280;35512;56.312;101.728;2023-01-25T11:24:53;96983.53;;;-21.08;73.68
45129;BME280;35512;56.312;101.728;2023-01-25T11:27:26;96986.63;;;-21.04;73.42
45129;BME280;35512;56.312;101.728;2023-01-25T11:32:38;96989.41;;;-20.98;73.32
45129;BME280;35512;56.312;101.728;2023-01-25T11:35:30;96979.34;;;-21.09;73.37
45129;BME280;35512;56.312;101.728;2023-01-25T11:38:13;96987.78;;;-20.99;73.37
45129;BME280;35512;56.312;101.728;2023-01-25T11:43:46;96985.84;;;-20.97;73.26
45129;BME280;35512;56.312;101.728;2023-01-25T11:49:26;96991.19;;;-20.90;73.50
45129;BME280;35512;56.312;101.728;2023-01-25T11:52:24;97001.66;;;-20.83;73.59
45129;BME280;35512;56.312;101.728;2023-01-25T11:55:24;97000.94;;;-20.75;73.43
45129;BME280;35512;56.312;101.728;2023-01-25T12:00:56;97003.41;;;-20.57;73.75
45129;BME280;35512;56.312;101.728;2023-01-25T12:13:01;97016.69;;;-20.36;73.64
45129;BME280;35512;56.312;101.728;2023-01-25T12:20:34;97017.72;;;-20.20;73.66
45129;BME280;35512;56.312;101.728;2023-01-25T12:28:27;97027.06;;;-20.19;73.48
45129;BME280;35512;56.312;101.728;2023-01-25T12:31:56;97024.13;;;-20.25;73.62
45129;BME280;35512;56.312;101.728;2023-01-25T12:34:20;97030.22;;;-20.26;73.40
45129;BME280;35512;56.312;101.728;2023-01-25T12:36:50;97024.41;;;-20.36;73.44
45129;BME280;35512;56.312;101.728;2023-01-25T12:39:23;97029.88;;;-20.31;73.60
45129;BME280;35512;56.312;101.728;2023-01-25T12:42:28;97029.75;;;-20.29;73.60
45129;BME280;35512;56.312;101.728;2023-01-25T12:45:34;97043.38;;;-20.29;73.55
45129;BME280;35512;56.312;101.728;2023-01-25T12:50:49;97035.03;;;-20.31;73.91
45129;BME280;35512;56.312;101.728;2023-01-25T12:53:23;97035.88;;;-20.22;73.93
45129;BME280;35512;56.312;101.728;2023-01-25T12:55:54;97033.66;;;-20.17;74.18
45129;BME280;35512;56.312;101.728;2023-01-25T13:01:29;97040.72;;;-20.11;73.77
45129;BME280;35512;56.312;101.728;2023-01-25T13:04:13;97033.84;;;-20.10;74.00
45129;BME280;35512;56.312;101.728;2023-01-25T13:06:59;97032.44;;;-19.96;74.14
45129;BME280;35512;56.312;101.728;2023-01-25T13:12:12;97039.09;;;-19.85;74.23
45129;BME280;35512;56.312;101.728;2023-01-25T13:14:41;97050.03;;;-19.75;74.27
45129;BME280;35512;56.312;101.728;2023-01-25T13:19:46;97047.63;;;-19.68;74.23
45129;BME280;35512;56.312;101.728;2023-01-25T13:27:45;97049.91;;;-19.65;74.20
45129;BME280;35512;56.312;101.728;2023-01-25T13:32:54;97051.19;;;-19.61;74.20
45129;BME280;35512;56.312;101.728;2023-01-25T13:35:50;97048.59;;;-19.69;73.79
45129;BME280;35512;56.312;101.728;2023-01-25T13:38:33;97045.38;;;-19.71;73.92
45129;BME280;35512;56.312;101.728;2023-01-25T13:41:21;97036.19;;;-19.82;73.84
45129;BME280;35512;56.312;101.728;2023-01-25T13:44:17;97052.72;;;-19.77;73.93
45129;BME280;35512;56.312;101.728;2023-01-25T13:46:47;97049.38;;;-19.85;73.66
45129;BME280;35512;56.312;101.728;2023-01-25T13:49:21;97050.78;;;-19.91;73.62
45129;BME280;35512;56.312;101.728;2023-01-25T13:51:53;97057.69;;;-19.92;73.70
45129;BME280;35512;56.312;101.728;2023-01-25T13:54:23;97055.91;;;-19.99;73.57
45129;BME280;35512;56.312;101.728;2023-01-25T13:57:06;97065.38;;;-20.00;73.49
45129;BME280;35512;56.312;101.728;2023-01-25T13:59:41;97069.09;;;-19.94;73.41
45129;BME280;35512;56.312;101.728;2023-01-25T14:02:18;97073.28;;;-19.93;73.47
45129;BME280;35512;56.312;101.728;2023-01-25T14:04:49;97068.13;;;-19.93;73.58
45129;BME280;35512;56.312;101.728;2023-01-25T14:07:27;97076.19;;;-19.88;73.69
45129;BME280;35512;56.312;101.728;2023-01-25T14:10:00;97072.34;;;-19.84;73.53
45129;BME280;35512;56.312;101.728;2023-01-25T14:12:39;97071.84;;;-19.79;74.13
45129;BME280;35512;56.312;101.728;2023-01-25T14:15:25;97086.34;;;-19.70;73.88
45129;BME280;35512;56.312;101.728;2023-01-25T14:18:15;97085.09;;;-19.66;73.90
45129;BME280;35512;56.312;101.728;2023-01-25T14:20:49;97086.56;;;-19.55;73.83